createdAt,value
2018-05-27T00:01:42.595Z,13.47
2018-05-27T00:04:08.799Z,15.20
2018-05-27T00:06:35.015Z,15.00
2018-05-27T00:09:01.243Z,14.37
2018-05-27T00:11:34.507Z,14.20
2018-05-27T00:14:00.714Z,13.10
2018-05-27T00:16:26.931Z,13.73
2018-05-27T00:18:53.177Z,12.53
2018-05-27T00:21:19.350Z,12.57
2018-05-27T00:23:45.557Z,11.63
2018-05-27T00:26:11.739Z,12.87
2018-05-27T00:28:37.945Z,13.60
2018-05-27T00:31:04.167Z,12.33
2018-05-27T00:33:31.122Z,13.10
2018-05-27T00:35:57.345Z,14.03
2018-05-27T00:38:23.525Z,13.00
2018-05-27T00:40:49.738Z,12.67
2018-05-27T00:43:15.925Z,12.27
2018-05-27T00:45:42.141Z,12.97
2018-05-27T00:48:09.058Z,12.50
2018-05-27T00:50:35.261Z,12.23
2018-05-27T00:53:01.609Z,12.40
2018-05-27T00:55:27.822Z,11.93
2018-05-27T00:57:54.024Z,11.63
2018-05-27T01:00:20.227Z,12.70
2018-05-27T01:02:46.405Z,13.53
2018-05-27T01:05:12.649Z,13.57
2018-05-27T01:07:38.831Z,12.63
2018-05-27T01:10:05.038Z,13.07
2018-05-27T01:12:31.973Z,13.23
2018-05-27T01:14:58.373Z,14.00
2018-05-27T01:17:24.572Z,12.77
2018-05-27T01:19:50.796Z,12.50
2018-05-27T01:22:16.989Z,13.03
2018-05-27T01:24:43.226Z,13.23
2018-05-27T01:27:09.423Z,13.17
2018-05-27T01:29:35.632Z,13.50
2018-05-27T01:32:01.829Z,12.67
2018-05-27T01:34:28.042Z,13.07
2018-05-27T01:36:54.251Z,14.10
2018-05-27T01:39:20.442Z,13.37
2018-05-27T01:41:46.641Z,12.93
2018-05-27T01:44:12.809Z,13.37
2018-05-27T01:46:39.066Z,13.27
2018-05-27T01:49:06.043Z,14.77
2018-05-27T01:51:32.282Z,12.93
2018-05-27T01:53:58.467Z,13.37
2018-05-27T01:56:24.661Z,13.57
2018-05-27T01:58:50.841Z,13.67
2018-05-27T02:01:17.038Z,14.47
2018-05-27T02:03:43.969Z,13.90
2018-05-27T02:06:10.175Z,13.97
2018-05-27T02:08:36.373Z,13.13
2018-05-27T02:11:02.601Z,14.07
2018-05-27T02:13:28.770Z,14.00
2018-05-27T02:15:54.977Z,13.07
2018-05-27T02:18:21.211Z,14.00
2018-05-27T02:20:47.411Z,13.40
2018-05-27T02:23:13.636Z,14.50
2018-05-27T02:25:39.829Z,13.80
2018-05-27T02:28:06.058Z,12.80
2018-05-27T02:30:32.288Z,13.37
2018-05-27T02:32:58.493Z,13.20
2018-05-27T02:35:24.702Z,14.73
2018-05-27T02:37:50.893Z,15.33
2018-05-27T02:40:17.085Z,13.77
2018-05-27T02:42:44.015Z,12.90
2018-05-27T02:45:10.228Z,14.47
2018-05-27T02:47:36.411Z,13.80
2018-05-27T02:50:02.632Z,14.13
2018-05-27T02:52:28.828Z,12.70
2018-05-27T02:54:55.005Z,14.20
2018-05-27T02:57:21.213Z,13.47
2018-05-27T02:59:47.443Z,12.47
2018-05-27T03:02:13.649Z,14.33
2018-05-27T03:04:40.578Z,14.47
2018-05-27T03:07:06.793Z,14.23
2018-05-27T03:09:32.979Z,15.43
2018-05-27T03:11:59.218Z,15.77
2018-05-27T03:14:25.406Z,15.20
2018-05-27T03:16:52.364Z,15.60
2018-05-27T03:19:18.551Z,16.30
2018-05-27T03:21:44.758Z,16.00
2018-05-27T03:24:10.934Z,15.27
2018-05-27T03:26:37.907Z,15.63
2018-05-27T03:29:04.087Z,16.67
2018-05-27T03:31:30.300Z,16.27
2018-05-27T03:33:56.500Z,14.87
2018-05-27T03:36:22.701Z,16.63
2018-05-27T03:38:48.872Z,16.13
2018-05-27T03:41:15.085Z,14.97
2018-05-27T03:43:41.274Z,14.80
2018-05-27T03:46:07.469Z,13.13
2018-05-27T03:48:33.632Z,13.50
2018-05-27T03:50:59.821Z,12.10
2018-05-27T03:53:26.037Z,12.50
2018-05-27T03:55:52.265Z,13.03
2018-05-27T03:58:18.446Z,14.00
2018-05-27T04:00:44.637Z,11.87
2018-05-27T04:03:10.805Z,13.30
2018-05-27T04:05:49.106Z,12.50
2018-05-27T04:08:27.481Z,12.03
2018-05-27T04:10:53.693Z,13.10
2018-05-27T04:13:19.862Z,11.20
2018-05-27T04:15:46.906Z,12.40
2018-05-27T04:18:13.825Z,12.30
2018-05-27T04:20:40.072Z,12.87
2018-05-27T04:23:06.264Z,12.70
2018-05-27T04:25:32.459Z,13.93
2018-05-27T04:27:58.662Z,14.20
2018-05-27T04:30:25.582Z,13.63
2018-05-27T04:32:51.786Z,13.03
2018-05-27T04:35:18.041Z,13.73
2018-05-27T04:37:44.238Z,14.23
2018-05-27T04:40:10.419Z,14.33
2018-05-27T04:42:37.362Z,14.60
2018-05-27T04:45:03.566Z,13.13
2018-05-27T04:47:29.761Z,13.00
2018-05-27T04:49:55.943Z,13.53
2018-05-27T04:52:22.929Z,11.97
2018-05-27T04:54:49.125Z,11.83
2018-05-27T04:57:15.337Z,10.77
2018-05-27T04:59:42.285Z,12.00
2018-05-27T05:02:08.505Z,13.43
2018-05-27T05:04:35.422Z,13.10
2018-05-27T05:07:01.626Z,11.80
2018-05-27T05:09:27.832Z,12.77
2018-05-27T05:11:54.042Z,12.23
2018-05-27T05:14:20.222Z,12.70
2018-05-27T05:16:46.421Z,12.73
2018-05-27T05:19:12.797Z,11.97
2018-05-27T05:21:38.998Z,12.87
2018-05-27T05:24:05.185Z,13.10
2018-05-27T05:26:31.495Z,12.83
2018-05-27T05:28:58.426Z,13.07
2018-05-27T05:31:24.633Z,12.57
2018-05-27T05:33:50.837Z,12.50
2018-05-27T05:36:17.046Z,12.50
2018-05-27T05:38:43.993Z,12.87
2018-05-27T05:41:10.157Z,12.70
2018-05-27T05:43:36.390Z,12.50
2018-05-27T05:46:02.604Z,13.03
2018-05-27T05:48:28.819Z,11.63
2018-05-27T05:50:54.993Z,12.80
2018-05-27T05:53:21.203Z,12.57
2018-05-27T05:55:47.450Z,13.30
2018-05-27T05:58:13.622Z,15.10
2018-05-27T06:00:39.833Z,15.13
2018-05-27T06:03:06.038Z,19.60
2018-05-27T06:05:32.219Z,19.23
2018-05-27T06:07:58.430Z,17.60
2018-05-27T06:10:24.624Z,15.97
2018-05-27T06:12:50.827Z,14.03
2018-05-27T06:15:17.034Z,14.17
2018-05-27T06:17:43.258Z,14.23
2018-05-27T06:20:09.433Z,12.83
2018-05-27T06:22:36.410Z,14.53
2018-05-27T06:25:02.638Z,13.03
2018-05-27T06:27:28.838Z,13.03
2018-05-27T06:29:55.019Z,12.20
2018-05-27T06:32:21.251Z,13.03
2018-05-27T06:34:47.454Z,13.07
2018-05-27T06:37:13.708Z,12.40
2018-05-27T06:39:39.878Z,13.50
2018-05-27T06:42:06.835Z,12.30
2018-05-27T06:44:33.018Z,12.73
2018-05-27T06:46:59.206Z,11.80
2018-05-27T06:49:25.459Z,12.83
2018-05-27T06:51:51.626Z,11.87
2018-05-27T06:54:18.577Z,12.17
2018-05-27T06:56:45.617Z,13.57
2018-05-27T06:59:12.549Z,18.30
2018-05-27T07:01:38.739Z,20.13
2018-05-27T07:04:04.945Z,20.93
2018-05-27T07:06:31.117Z,14.33
2018-05-27T07:08:57.343Z,13.23
2018-05-27T07:11:23.523Z,13.53
2018-05-27T07:13:49.753Z,13.27
2018-05-27T07:16:15.922Z,12.97
2018-05-27T07:18:42.229Z,15.00
2018-05-27T07:21:08.420Z,13.93
2018-05-27T07:23:34.654Z,13.53
2018-05-27T07:26:00.865Z,18.00
2018-05-27T07:28:27.062Z,17.20
2018-05-27T07:30:53.244Z,13.67
2018-05-27T07:33:19.463Z,15.97
2018-05-27T07:35:45.651Z,13.30
2018-05-27T07:38:11.849Z,11.00
2018-05-27T07:40:38.078Z,10.23
2018-05-27T07:43:04.452Z,11.13
2018-05-27T07:45:30.666Z,11.37
2018-05-27T07:47:56.915Z,10.40
2018-05-27T07:50:23.120Z,10.70
2018-05-27T07:52:49.345Z,12.33
2018-05-27T07:55:15.553Z,10.47
2018-05-27T07:57:41.733Z,10.90
2018-05-27T08:00:07.939Z,10.07
2018-05-27T08:02:34.178Z,10.40
2018-05-27T08:05:00.400Z,10.97
2018-05-27T08:07:26.606Z,14.87
2018-05-27T08:09:52.821Z,16.60
2018-05-27T08:12:19.018Z,14.00
2018-05-27T08:14:45.295Z,16.30
2018-05-27T08:17:11.518Z,15.00
2018-05-27T08:19:37.718Z,14.23
2018-05-27T08:22:03.926Z,12.57
2018-05-27T08:24:30.121Z,12.67
2018-05-27T08:26:57.070Z,13.03
2018-05-27T08:29:24.044Z,13.20
2018-05-27T08:31:50.258Z,12.77
2018-05-27T08:34:16.491Z,13.20
2018-05-27T08:36:42.692Z,13.00
2018-05-27T08:39:08.892Z,13.70
2018-05-27T08:41:35.326Z,17.23
2018-05-27T08:44:01.549Z,12.33
2018-05-27T08:46:27.753Z,17.70
2018-05-27T08:48:54.027Z,11.30
2018-05-27T08:51:20.953Z,11.20
2018-05-27T08:53:47.177Z,13.90
2018-05-27T08:56:13.374Z,10.10
2018-05-27T08:58:39.628Z,17.40
2018-05-27T09:01:05.817Z,12.00
2018-05-27T09:03:32.046Z,12.73
2018-05-27T09:05:58.278Z,12.17
2018-05-27T09:08:24.470Z,12.10
2018-05-27T09:10:51.413Z,10.60
2018-05-27T09:13:17.619Z,10.07
2018-05-27T09:15:43.845Z,12.20
2018-05-27T09:18:10.093Z,11.17
2018-05-27T09:20:36.329Z,8.53
2018-05-27T09:23:02.538Z,9.80
2018-05-27T09:25:28.759Z,9.20
2018-05-27T09:27:54.967Z,9.70
2018-05-27T09:30:21.169Z,9.67
2018-05-27T09:32:47.402Z,10.67
2018-05-27T09:35:13.661Z,12.07
2018-05-27T09:37:39.871Z,12.33
2018-05-27T09:40:06.145Z,10.73
2018-05-27T09:42:32.361Z,9.97
2018-05-27T09:44:58.621Z,10.17
2018-05-27T09:47:24.781Z,10.83
2018-05-27T09:49:51.023Z,9.57
2018-05-27T09:52:17.241Z,9.33
2018-05-27T09:54:43.465Z,10.13
2018-05-27T09:57:09.679Z,9.67
2018-05-27T09:59:35.910Z,9.27
2018-05-27T10:02:02.119Z,9.80
2018-05-27T10:04:28.347Z,10.23
2018-05-27T10:06:54.717Z,8.90
2018-05-27T10:09:20.969Z,8.87
2018-05-27T10:11:47.166Z,9.53
2018-05-27T10:14:13.469Z,9.30
2018-05-27T10:16:39.725Z,8.40
2018-05-27T10:19:06.024Z,9.40
2018-05-27T10:21:32.314Z,9.10
2018-05-27T10:23:58.595Z,8.50
2018-05-27T10:26:24.906Z,9.50
2018-05-27T10:28:51.093Z,9.30
2018-05-27T10:31:17.332Z,9.70
2018-05-27T10:33:44.282Z,10.00
2018-05-27T10:36:10.540Z,9.20
2018-05-27T10:38:37.761Z,8.83
2018-05-27T10:41:04.873Z,10.10
2018-05-27T10:43:31.069Z,9.33
2018-05-27T10:45:57.287Z,8.53
2018-05-27T10:48:23.487Z,9.50
2018-05-27T10:50:49.913Z,8.73
2018-05-27T10:53:16.882Z,8.60
2018-05-27T10:55:43.150Z,9.83
2018-05-27T10:58:09.444Z,9.40
2018-05-27T11:00:35.741Z,8.83
2018-05-27T11:03:02.701Z,9.13
2018-05-27T11:05:29.722Z,8.67
2018-05-27T11:07:55.922Z,8.60
2018-05-27T11:10:22.161Z,8.80
2018-05-27T11:12:48.363Z,8.67
2018-05-27T11:15:14.603Z,7.90
2018-05-27T11:17:40.825Z,8.43
2018-05-27T11:20:07.042Z,8.70
2018-05-27T11:22:33.261Z,8.37
2018-05-27T11:24:59.893Z,8.40
2018-05-27T11:27:26.241Z,8.87
2018-05-27T11:29:52.535Z,8.10
2018-05-27T11:32:18.798Z,8.67
2018-05-27T11:34:45.021Z,10.30
2018-05-27T11:37:11.288Z,8.80
2018-05-27T11:39:37.490Z,8.50
2018-05-27T11:42:03.726Z,8.10
2018-05-27T11:44:29.978Z,9.27
2018-05-27T11:46:56.202Z,8.10
2018-05-27T11:49:22.425Z,8.00
2018-05-27T11:51:48.692Z,8.40
2018-05-27T11:54:15.746Z,8.33
2018-05-27T11:56:41.982Z,8.13
2018-05-27T11:59:08.943Z,7.47
2018-05-27T12:01:35.493Z,8.70
2018-05-27T12:04:01.807Z,7.80
2018-05-27T12:06:28.034Z,8.03
2018-05-27T12:08:54.231Z,8.60
2018-05-27T12:11:20.476Z,7.83
2018-05-27T12:13:46.671Z,8.00
2018-05-27T12:16:12.917Z,8.80
2018-05-27T12:18:39.122Z,8.43
2018-05-27T12:21:05.379Z,7.50
2018-05-27T12:23:31.651Z,9.00
2018-05-27T12:25:57.938Z,9.07
2018-05-27T12:28:24.147Z,9.10
2018-05-27T12:30:53.781Z,8.90
2018-05-27T12:33:20.010Z,9.10
2018-05-27T12:35:46.262Z,8.80
2018-05-27T12:38:12.465Z,8.70
2018-05-27T12:40:38.937Z,8.70
2018-05-27T12:43:05.141Z,8.47
2018-05-27T12:45:31.355Z,7.67
2018-05-27T12:47:57.594Z,8.00
2018-05-27T12:50:23.785Z,9.10
2018-05-27T12:52:50.766Z,8.83
2018-05-27T12:55:17.024Z,8.70
2018-05-27T12:57:43.246Z,8.97
2018-05-27T13:00:09.450Z,8.23
2018-05-27T13:02:35.677Z,8.10
2018-05-27T13:05:01.919Z,9.20
2018-05-27T13:07:28.246Z,8.70
2018-05-27T13:09:54.398Z,10.10
2018-05-27T13:12:20.692Z,9.17
2018-05-27T13:14:46.945Z,9.47
2018-05-27T13:17:13.158Z,9.50
2018-05-27T13:19:39.353Z,8.80
2018-05-27T13:22:05.582Z,9.10
2018-05-27T13:24:31.773Z,8.40
2018-05-27T13:26:57.992Z,9.40
2018-05-27T13:29:24.837Z,9.23
2018-05-27T13:31:51.057Z,8.47
2018-05-27T13:34:17.850Z,8.23
2018-05-27T13:36:44.053Z,9.30
2018-05-27T13:39:10.257Z,10.20
2018-05-27T13:41:36.494Z,8.57
2018-05-27T13:44:02.797Z,9.00
2018-05-27T13:46:29.019Z,9.10
2018-05-27T13:48:55.310Z,8.90
2018-05-27T13:51:21.541Z,7.13
2018-05-27T13:53:47.806Z,7.60
2018-05-27T13:56:14.051Z,8.20
2018-05-27T13:58:40.283Z,7.60
2018-05-27T14:01:06.701Z,9.17
2018-05-27T14:03:32.939Z,8.93
2018-05-27T14:05:59.152Z,9.20
2018-05-27T14:08:25.402Z,9.20
2018-05-27T14:10:51.643Z,10.20
2018-05-27T14:13:17.908Z,9.10
2018-05-27T14:15:44.089Z,6.97
2018-05-27T14:18:10.335Z,6.23
2018-05-27T14:20:37.288Z,6.37
2018-05-27T14:23:03.584Z,6.27
2018-05-27T14:25:29.778Z,5.70
2018-05-27T14:27:56.116Z,5.97
2018-05-27T14:30:23.087Z,6.80
2018-05-27T14:32:49.300Z,6.03
2018-05-27T14:35:15.519Z,6.47
2018-05-27T14:37:41.714Z,5.90
2018-05-27T14:40:07.961Z,6.80
2018-05-27T14:42:34.173Z,7.23
2018-05-27T14:45:00.353Z,6.73
2018-05-27T14:47:26.562Z,6.90
2018-05-27T14:49:52.757Z,6.93
2018-05-27T14:52:19.047Z,8.50
2018-05-27T14:54:46.528Z,14.23
2018-05-27T14:57:13.646Z,13.27
2018-05-27T14:59:39.838Z,10.90
2018-05-27T15:02:06.101Z,11.53
2018-05-27T15:04:32.296Z,10.77
2018-05-27T15:06:58.511Z,10.20
2018-05-27T15:09:24.739Z,10.23
2018-05-27T15:11:50.974Z,10.50
2018-05-27T15:14:17.174Z,12.97
2018-05-27T15:16:43.374Z,12.37
2018-05-27T15:19:09.602Z,12.90
2018-05-27T15:21:36.102Z,12.47
2018-05-27T15:24:02.350Z,11.47
2018-05-27T15:26:28.661Z,11.90
2018-05-27T15:28:54.874Z,12.80
2018-05-27T15:31:21.103Z,12.03
2018-05-27T15:33:47.324Z,11.23
2018-05-27T15:36:13.537Z,13.07
2018-05-27T15:38:39.779Z,13.10
2018-05-27T15:41:05.990Z,12.80
2018-05-27T15:43:32.195Z,20.43
2018-05-27T15:45:58.394Z,19.40
2018-05-27T15:48:24.788Z,20.30
2018-05-27T15:50:51.785Z,19.40
2018-05-27T15:53:18.041Z,16.83
2018-05-27T15:55:44.233Z,14.37
2018-05-27T15:58:10.461Z,11.43
2018-05-27T16:00:36.683Z,11.77
2018-05-27T16:03:02.947Z,11.97
2018-05-27T16:05:29.364Z,15.20
2018-05-27T16:07:56.383Z,13.50
2018-05-27T16:10:22.584Z,10.03
2018-05-27T16:12:48.804Z,14.90
2018-05-27T16:15:14.982Z,14.60
2018-05-27T16:17:41.217Z,13.53
2018-05-27T16:20:07.525Z,12.30
2018-05-27T16:22:33.745Z,14.73
2018-05-27T16:24:59.985Z,13.77
2018-05-27T16:27:26.714Z,12.63
2018-05-27T16:29:52.925Z,14.20
2018-05-27T16:32:19.140Z,14.57
2018-05-27T16:34:45.385Z,14.17
2018-05-27T16:37:11.614Z,16.10
2018-05-27T16:39:37.841Z,16.27
2018-05-27T16:42:04.052Z,17.43
2018-05-27T16:44:30.283Z,15.30
2018-05-27T16:46:56.501Z,14.70
2018-05-27T16:49:22.791Z,13.83
2018-05-27T16:51:50.298Z,13.60
2018-05-27T16:54:16.501Z,13.57
2018-05-27T16:56:42.688Z,16.17
2018-05-27T16:59:08.959Z,15.27
2018-05-27T17:01:35.155Z,15.00
2018-05-27T17:04:01.458Z,16.00
2018-05-27T17:06:27.666Z,13.67
2018-05-27T17:08:54.102Z,15.70
2018-05-27T17:11:20.306Z,13.70
2018-05-27T17:13:46.537Z,14.67
2018-05-27T17:16:12.834Z,13.60
2018-05-27T17:18:39.067Z,14.40
2018-05-27T17:21:05.270Z,13.33
2018-05-27T17:23:31.574Z,12.40
2018-05-27T17:25:57.823Z,14.40
2018-05-27T17:28:24.023Z,12.73
2018-05-27T17:30:50.214Z,13.90
2018-05-27T17:33:17.254Z,12.67
2018-05-27T17:35:43.483Z,14.07
2018-05-27T17:38:09.733Z,15.43
2018-05-27T17:40:36.010Z,14.53
2018-05-27T17:43:02.341Z,17.03
2018-05-27T17:45:28.582Z,17.37
2018-05-27T17:48:06.869Z,17.10
2018-05-27T17:50:33.101Z,15.50
2018-05-27T17:53:00.015Z,16.00
2018-05-27T17:55:26.286Z,14.53
2018-05-27T17:57:52.507Z,12.70
2018-05-27T18:00:19.626Z,13.77
2018-05-27T18:02:45.818Z,14.20
2018-05-27T18:05:12.478Z,14.20
2018-05-27T18:07:38.682Z,14.93
2018-05-27T18:10:04.982Z,15.50
2018-05-27T18:12:31.403Z,14.80
2018-05-27T18:14:57.709Z,13.70
2018-05-27T18:17:23.911Z,14.37
2018-05-27T18:19:50.202Z,14.93
2018-05-27T18:22:16.534Z,16.10
2018-05-27T18:24:42.810Z,17.53
2018-05-27T18:27:09.002Z,18.23
2018-05-27T18:29:35.201Z,21.40
2018-05-27T18:32:01.562Z,17.93
2018-05-27T18:34:27.856Z,19.47
2018-05-27T18:36:54.121Z,18.50
2018-05-27T18:39:20.363Z,17.40
2018-05-27T18:41:47.302Z,19.40
2018-05-27T18:44:13.509Z,17.67
2018-05-27T18:46:39.718Z,16.77
2018-05-27T18:49:06.986Z,18.93
2018-05-27T18:51:33.322Z,18.33
2018-05-27T18:53:59.510Z,16.43
2018-05-27T18:56:25.706Z,17.70
2018-05-27T18:58:51.920Z,17.07
2018-05-27T19:01:18.149Z,18.47
2018-05-27T19:03:44.360Z,18.00
2018-05-27T19:06:10.614Z,20.23
2018-05-27T19:08:36.813Z,20.03
2018-05-27T19:11:03.051Z,21.17
2018-05-27T19:13:29.235Z,22.00
2018-05-27T19:15:55.497Z,23.27
2018-05-27T19:18:21.697Z,24.20
2018-05-27T19:20:48.011Z,25.40
2018-05-27T19:23:14.222Z,25.53
2018-05-27T19:25:40.477Z,23.87
2018-05-27T19:28:06.749Z,23.80
2018-05-27T19:30:33.830Z,21.30
2018-05-27T19:33:00.070Z,22.33
2018-05-27T19:35:26.321Z,21.97
2018-05-27T19:37:52.726Z,22.60
2018-05-27T19:40:18.988Z,21.17
2018-05-27T19:42:45.281Z,21.83
2018-05-27T19:45:11.541Z,22.57
2018-05-27T19:47:37.841Z,22.37
2018-05-27T19:50:04.172Z,21.20
2018-05-27T19:52:30.367Z,22.70
2018-05-27T19:54:56.602Z,20.90
2018-05-27T19:57:22.820Z,20.73
2018-05-27T19:59:50.794Z,21.20
2018-05-27T20:02:17.942Z,31.30
2018-05-27T20:04:44.157Z,32.90
2018-05-27T20:07:11.794Z,26.70
2018-05-27T20:09:38.067Z,24.63
2018-05-27T20:12:04.651Z,22.83
2018-05-27T20:14:30.942Z,23.60
2018-05-27T20:16:57.335Z,23.17
2018-05-27T20:19:23.703Z,23.30
2018-05-27T20:21:50.557Z,23.90
2018-05-27T20:24:16.948Z,24.50
2018-05-27T20:26:43.505Z,24.63
2018-05-27T20:29:09.757Z,24.60
2018-05-27T20:31:36.092Z,25.20
2018-05-27T20:34:02.714Z,25.77
2018-05-27T20:36:29.098Z,26.67
2018-05-27T20:38:55.684Z,28.47
2018-05-27T20:41:22.135Z,27.67
2018-05-27T20:43:48.441Z,27.93
2018-05-27T20:46:14.796Z,29.23
2018-05-27T20:48:41.001Z,30.03
2018-05-27T20:51:07.558Z,30.30
2018-05-27T20:53:34.040Z,30.63
2018-05-27T20:56:00.454Z,28.37
2018-05-27T20:58:26.729Z,29.50
2018-05-27T21:00:52.930Z,31.47
2018-05-27T21:03:19.877Z,31.23
2018-05-27T21:05:46.121Z,31.97
2018-05-27T21:08:12.305Z,32.10
2018-05-27T21:10:38.514Z,32.10
2018-05-27T21:13:04.723Z,29.67
2018-05-27T21:15:31.007Z,31.23
2018-05-27T21:17:57.998Z,29.00
2018-05-27T21:20:24.201Z,28.97
2018-05-27T21:22:51.159Z,30.50
2018-05-27T21:25:17.405Z,31.30
2018-05-27T21:27:44.374Z,31.60
2018-05-27T21:30:10.577Z,30.10
2018-05-27T21:32:36.784Z,28.10
2018-05-27T21:35:03.039Z,28.57
2018-05-27T21:37:29.302Z,30.10
2018-05-27T21:39:55.551Z,30.77
2018-05-27T21:42:21.837Z,30.50
2018-05-27T21:44:48.885Z,30.90
2018-05-27T21:47:15.161Z,31.30
2018-05-27T21:49:41.362Z,31.90
2018-05-27T21:52:07.585Z,31.57
2018-05-27T21:54:33.822Z,31.40
2018-05-27T21:57:00.058Z,32.00
2018-05-27T21:59:26.242Z,33.07
2018-05-27T22:01:53.230Z,31.80
2018-05-27T22:04:20.166Z,32.07
2018-05-27T22:06:47.133Z,32.47
2018-05-27T22:09:13.353Z,33.80
2018-05-27T22:11:39.565Z,34.13
2018-05-27T22:14:05.945Z,34.03
2018-05-27T22:16:32.158Z,35.77
2018-05-27T22:18:58.336Z,35.07
2018-05-27T22:21:24.562Z,37.97
2018-05-27T22:23:50.754Z,37.00
2018-05-27T22:26:17.184Z,34.97
2018-05-27T22:28:43.385Z,36.97
2018-05-27T22:31:09.582Z,36.60
2018-05-27T22:33:35.806Z,38.30
2018-05-27T22:36:01.994Z,39.17
2018-05-27T22:38:28.224Z,41.00
2018-05-27T22:40:54.421Z,38.27
2018-05-27T22:43:21.394Z,40.47
2018-05-27T22:45:47.585Z,41.93
2018-05-27T22:48:13.793Z,40.97
2018-05-27T22:50:39.973Z,40.73
2018-05-27T22:53:06.190Z,40.70
2018-05-27T22:55:32.353Z,41.27
2018-05-27T22:57:58.581Z,43.70
2018-05-27T23:00:24.762Z,41.70
2018-05-27T23:02:50.946Z,43.90
2018-05-27T23:05:17.239Z,41.47
2018-05-27T23:07:43.439Z,40.20
2018-05-27T23:10:09.613Z,40.60
2018-05-27T23:12:35.813Z,42.37
2018-05-27T23:15:02.022Z,39.07
2018-05-27T23:17:28.221Z,40.97
2018-05-27T23:19:54.422Z,37.27
2018-05-27T23:22:20.646Z,40.23
2018-05-27T23:24:46.828Z,37.20
2018-05-27T23:27:13.046Z,37.70
2018-05-27T23:29:39.986Z,39.33
2018-05-27T23:32:06.177Z,37.53
2018-05-27T23:34:32.367Z,37.77
2018-05-27T23:36:58.573Z,35.53
2018-05-27T23:39:25.508Z,35.87
2018-05-27T23:41:52.424Z,37.60
2018-05-27T23:44:18.617Z,35.30
2018-05-27T23:46:44.981Z,36.80
2018-05-27T23:49:11.190Z,37.07
2018-05-27T23:51:37.380Z,37.47
2018-05-27T23:54:03.595Z,36.53
2018-05-27T23:56:29.782Z,33.70
2018-05-27T23:58:55.989Z,35.00
